sensor_id;sensor_type;location;lat;lon;timestamp;P1;durP1;ratioP1;P2;durP2;ratioP2
57565;SDS011;63999;43.882;-0.310;2023-02-22T00:00:52;27.30;;;13.60;;
57565;SDS011;63999;43.882;-0.310;2023-02-22T00:03:24;22.88;;;13.07;;
57565;SDS011;63999;43.882;-0.310;2023-02-22T00:05:55;23.50;;;12.57;;
57565;SDS011;63999;43.882;-0.310;2023-02-22T00:08:31;24.83;;;12.55;;
57565;SDS011;63999;43.882;-0.310;2023-02-22T00:10:59;20.65;;;12.48;;
57565;SDS011;63999;43.882;-0.310;2023-02-22T00:13:26;24.48;;;12.55;;
57565;SDS011;63999;43.882;-0.310;2023-02-22T00:15:56;19.38;;;12.50;;
57565;SDS011;63999;43.882;-0.310;2023-02-22T00:18:23;19.23;;;12.30;;
57565;SDS011;63999;43.882;-0.310;2023-02-22T00:20:52;22.60;;;12.43;;
57565;SDS011;63999;43.882;-0.310;2023-02-22T00:23:19;21.33;;;12.30;;
57565;SDS011;63999;43.882;-0.310;2023-02-22T00:25:48;21.80;;;12.07;;
57565;SDS011;63999;43.882;-0.310;2023-02-22T00:28:15;20.35;;;12.10;;
57565;SDS011;63999;43.882;-0.310;2023-02-22T00:30:43;19.67;;;11.65;;
57565;SDS011;63999;43.882;-0.310;2023-02-22T00:33:10;18.50;;;11.85;;
57565;SDS011;63999;43.882;-0.310;2023-02-22T00:35:36;21.67;;;12.10;;
57565;SDS011;63999;43.882;-0.310;2023-02-22T00:38:03;27.17;;;13.15;;
57565;SDS011;63999;43.882;-0.310;2023-02-22T00:40:30;21.10;;;12.18;;
57565;SDS011;63999;43.882;-0.310;2023-02-22T00:42:57;22.23;;;12.18;;
57565;SDS011;63999;43.882;-0.310;2023-02-22T00:45:25;18.92;;;11.57;;
57565;SDS011;63999;43.882;-0.310;2023-02-22T00:47:52;16.27;;;11.30;;
57565;SDS011;63999;43.882;-0.310;2023-02-22T00:50:19;20.52;;;11.43;;
57565;SDS011;63999;43.882;-0.310;2023-02-22T00:52:46;18.17;;;10.90;;
57565;SDS011;63999;43.882;-0.310;2023-02-22T00:55:17;21.80;;;11.88;;
57565;SDS011;63999;43.882;-0.310;2023-02-22T00:57:46;21.23;;;11.48;;
57565;SDS011;63999;43.882;-0.310;2023-02-22T01:00:15;18.98;;;12.48;;
57565;SDS011;63999;43.882;-0.310;2023-02-22T01:02:44;22.30;;;13.13;;
57565;SDS011;63999;43.882;-0.310;2023-02-22T01:05:11;22.55;;;12.07;;
57565;SDS011;63999;43.882;-0.310;2023-02-22T01:07:38;21.15;;;11.88;;
57565;SDS011;63999;43.882;-0.310;2023-02-22T01:10:06;18.48;;;11.63;;
57565;SDS011;63999;43.882;-0.310;2023-02-22T01:12:33;19.00;;;12.00;;
57565;SDS011;63999;43.882;-0.310;2023-02-22T01:15:00;19.48;;;12.38;;
57565;SDS011;63999;43.882;-0.310;2023-02-22T01:17:34;23.98;;;12.57;;
57565;SDS011;63999;43.882;-0.310;2023-02-22T01:20:02;21.33;;;13.07;;
57565;SDS011;63999;43.882;-0.310;2023-02-22T01:22:34;25.67;;;13.23;;
57565;SDS011;63999;43.882;-0.310;2023-02-22T01:25:01;23.10;;;12.48;;
57565;SDS011;63999;43.882;-0.310;2023-02-22T01:27:28;26.15;;;12.38;;
57565;SDS011;63999;43.882;-0.310;2023-02-22T01:29:54;20.08;;;12.48;;
57565;SDS011;63999;43.882;-0.310;2023-02-22T01:32:20;26.30;;;12.98;;
57565;SDS011;63999;43.882;-0.310;2023-02-22T01:34:45;19.23;;;12.25;;
57565;SDS011;63999;43.882;-0.310;2023-02-22T01:37:11;23.02;;;12.52;;
57565;SDS011;63999;43.882;-0.310;2023-02-22T01:39:37;20.25;;;11.23;;
57565;SDS011;63999;43.882;-0.310;2023-02-22T01:42:03;24.95;;;12.32;;
57565;SDS011;63999;43.882;-0.310;2023-02-22T01:44:33;22.55;;;11.90;;
57565;SDS011;63999;43.882;-0.310;2023-02-22T01:47:01;19.92;;;12.40;;
57565;SDS011;63999;43.882;-0.310;2023-02-22T01:49:30;24.75;;;13.23;;
57565;SDS011;63999;43.882;-0.310;2023-02-22T01:52:01;28.17;;;12.95;;
57565;SDS011;63999;43.882;-0.310;2023-02-22T01:54:42;20.25;;;12.68;;
57565;SDS011;63999;43.882;-0.310;2023-02-22T01:57:20;28.55;;;12.75;;
57565;SDS011;63999;43.882;-0.310;2023-02-22T01:59:50;21.67;;;12.75;;
57565;SDS011;63999;43.882;-0.310;2023-02-22T02:02:19;21.40;;;12.75;;
57565;SDS011;63999;43.882;-0.310;2023-02-22T02:04:46;21.17;;;12.23;;
57565;SDS011;63999;43.882;-0.310;2023-02-22T02:07:13;18.98;;;11.90;;
57565;SDS011;63999;43.882;-0.310;2023-02-22T02:09:58;16.92;;;11.55;;
57565;SDS011;63999;43.882;-0.310;2023-02-22T02:12:30;19.55;;;11.48;;
57565;SDS011;63999;43.882;-0.310;2023-02-22T02:15:15;23.45;;;12.52;;
57565;SDS011;63999;43.882;-0.310;2023-02-22T02:17:44;22.10;;;13.90;;
57565;SDS011;63999;43.882;-0.310;2023-02-22T02:20:27;21.27;;;12.75;;
57565;SDS011;63999;43.882;-0.310;2023-02-22T02:43:11;21.33;;;12.55;;
57565;SDS011;63999;43.882;-0.310;2023-02-22T02:45:49;25.77;;;15.75;;
57565;SDS011;63999;43.882;-0.310;2023-02-22T02:48:32;22.52;;;13.15;;
57565;SDS011;63999;43.882;-0.310;2023-02-22T02:51:00;27.73;;;15.90;;
57565;SDS011;63999;43.882;-0.310;2023-02-22T02:53:32;28.20;;;17.60;;
57565;SDS011;63999;43.882;-0.310;2023-02-22T02:56:00;35.80;;;18.25;;
57565;SDS011;63999;43.882;-0.310;2023-02-22T02:58:26;32.83;;;18.02;;
57565;SDS011;63999;43.882;-0.310;2023-02-22T03:00:53;30.50;;;16.92;;
57565;SDS011;63999;43.882;-0.310;2023-02-22T03:06:12;25.10;;;16.88;;
57565;SDS011;63999;43.882;-0.310;2023-02-22T03:08:42;32.92;;;17.90;;
57565;SDS011;63999;43.882;-0.310;2023-02-22T03:11:23;30.95;;;17.50;;
57565;SDS011;63999;43.882;-0.310;2023-02-22T03:21:57;32.50;;;18.35;;
57565;SDS011;63999;43.882;-0.310;2023-02-22T03:24:32;33.28;;;17.15;;
57565;SDS011;63999;43.882;-0.310;2023-02-22T03:30:00;31.02;;;17.25;;
57565;SDS011;63999;43.882;-0.310;2023-02-22T03:32:31;34.00;;;18.40;;
57565;SDS011;63999;43.882;-0.310;2023-02-22T03:35:07;33.60;;;18.13;;
57565;SDS011;63999;43.882;-0.310;2023-02-22T03:37:38;26.70;;;15.88;;
57565;SDS011;63999;43.882;-0.310;2023-02-22T03:40:09;33.42;;;17.90;;
57565;SDS011;63999;43.882;-0.310;2023-02-22T03:42:40;33.95;;;17.30;;
57565;SDS011;63999;43.882;-0.310;2023-02-22T03:47:41;36.15;;;18.20;;
57565;SDS011;63999;43.882;-0.310;2023-02-22T03:50:21;33.38;;;17.65;;
57565;SDS011;63999;43.882;-0.310;2023-02-22T03:52:53;29.65;;;17.85;;
57565;SDS011;63999;43.882;-0.310;2023-02-22T03:55:23;38.05;;;19.20;;
57565;SDS011;63999;43.882;-0.310;2023-02-22T03:57:50;34.90;;;20.00;;
57565;SDS011;63999;43.882;-0.310;2023-02-22T04:00:22;36.25;;;20.23;;
57565;SDS011;63999;43.882;-0.310;2023-02-22T04:02:50;36.80;;;19.67;;
57565;SDS011;63999;43.882;-0.310;2023-02-22T04:05:16;34.45;;;19.80;;
57565;SDS011;63999;43.882;-0.310;2023-02-22T04:07:42;35.10;;;19.98;;
57565;SDS011;63999;43.882;-0.310;2023-02-22T04:10:09;33.53;;;20.38;;
57565;SDS011;63999;43.882;-0.310;2023-02-22T04:12:36;37.78;;;21.05;;
57565;SDS011;63999;43.882;-0.310;2023-02-22T04:15:03;38.08;;;20.48;;
57565;SDS011;63999;43.882;-0.310;2023-02-22T04:17:30;42.15;;;21.85;;
57565;SDS011;63999;43.882;-0.310;2023-02-22T04:19:56;34.95;;;20.20;;
57565;SDS011;63999;43.882;-0.310;2023-02-22T04:22:23;40.20;;;21.40;;
57565;SDS011;63999;43.882;-0.310;2023-02-22T04:24:49;40.63;;;21.63;;
57565;SDS011;63999;43.882;-0.310;2023-02-22T04:27:16;38.53;;;20.83;;
57565;SDS011;63999;43.882;-0.310;2023-02-22T04:29:42;38.47;;;21.77;;
57565;SDS011;63999;43.882;-0.310;2023-02-22T04:32:08;38.83;;;21.73;;
57565;SDS011;63999;43.882;-0.310;2023-02-22T04:34:33;41.35;;;20.95;;
57565;SDS011;63999;43.882;-0.310;2023-02-22T04:36:59;42.08;;;20.73;;
57565;SDS011;63999;43.882;-0.310;2023-02-22T04:39:26;34.70;;;20.15;;
57565;SDS011;63999;43.882;-0.310;2023-02-22T04:41:52;40.92;;;20.58;;
57565;SDS011;63999;43.882;-0.310;2023-02-22T04:44:17;38.83;;;21.52;;
57565;SDS011;63999;43.882;-0.310;2023-02-22T04:46:43;27.33;;;16.90;;
57565;SDS011;63999;43.882;-0.310;2023-02-22T04:49:10;32.40;;;18.80;;
57565;SDS011;63999;43.882;-0.310;2023-02-22T04:51:37;41.78;;;22.90;;
57565;SDS011;63999;43.882;-0.310;2023-02-22T04:54:03;38.40;;;23.13;;
57565;SDS011;63999;43.882;-0.310;2023-02-22T04:56:30;44.80;;;24.10;;
57565;SDS011;63999;43.882;-0.310;2023-02-22T04:58:56;40.67;;;22.25;;
57565;SDS011;63999;43.882;-0.310;2023-02-22T05:01:22;41.67;;;23.13;;
57565;SDS011;63999;43.882;-0.310;2023-02-22T05:03:48;42.80;;;22.98;;
57565;SDS011;63999;43.882;-0.310;2023-02-22T05:06:15;39.13;;;21.60;;
57565;SDS011;63999;43.882;-0.310;2023-02-22T05:08:41;45.05;;;24.23;;
57565;SDS011;63999;43.882;-0.310;2023-02-22T05:11:07;49.35;;;24.88;;
57565;SDS011;63999;43.882;-0.310;2023-02-22T05:13:34;46.28;;;23.85;;
57565;SDS011;63999;43.882;-0.310;2023-02-22T05:16:00;44.40;;;25.23;;
57565;SDS011;63999;43.882;-0.310;2023-02-22T05:18:26;131.52;;;27.85;;
57565;SDS011;63999;43.882;-0.310;2023-02-22T05:20:52;47.10;;;24.63;;
57565;SDS011;63999;43.882;-0.310;2023-02-22T05:23:18;47.50;;;25.80;;
57565;SDS011;63999;43.882;-0.310;2023-02-22T05:25:43;45.30;;;25.50;;
57565;SDS011;63999;43.882;-0.310;2023-02-22T05:28:11;48.85;;;25.48;;
57565;SDS011;63999;43.882;-0.310;2023-02-22T05:30:38;52.55;;;25.92;;
57565;SDS011;63999;43.882;-0.310;2023-02-22T05:33:04;43.47;;;24.02;;
57565;SDS011;63999;43.882;-0.310;2023-02-22T05:35:30;46.20;;;25.67;;
57565;SDS011;63999;43.882;-0.310;2023-02-22T05:37:57;54.05;;;28.33;;
57565;SDS011;63999;43.882;-0.310;2023-02-22T05:40:26;48.60;;;27.40;;
57565;SDS011;63999;43.882;-0.310;2023-02-22T05:42:53;51.55;;;28.15;;
57565;SDS011;63999;43.882;-0.310;2023-02-22T05:45:21;44.67;;;28.58;;
57565;SDS011;63999;43.882;-0.310;2023-02-22T05:47:49;62.40;;;34.30;;
57565;SDS011;63999;43.882;-0.310;2023-02-22T05:50:16;44.50;;;26.88;;
57565;SDS011;63999;43.882;-0.310;2023-02-22T05:52:43;41.05;;;24.10;;
57565;SDS011;63999;43.882;-0.310;2023-02-22T05:55:10;47.28;;;26.85;;
57565;SDS011;63999;43.882;-0.310;2023-02-22T05:57:38;50.70;;;28.63;;
57565;SDS011;63999;43.882;-0.310;2023-02-22T06:00:04;45.22;;;26.42;;
57565;SDS011;63999;43.882;-0.310;2023-02-22T06:02:32;47.75;;;28.42;;
57565;SDS011;63999;43.882;-0.310;2023-02-22T06:04:59;49.00;;;29.27;;
57565;SDS011;63999;43.882;-0.310;2023-02-22T06:07:25;42.45;;;26.35;;
57565;SDS011;63999;43.882;-0.310;2023-02-22T06:09:51;40.28;;;22.83;;
57565;SDS011;63999;43.882;-0.310;2023-02-22T06:12:17;53.35;;;33.03;;
57565;SDS011;63999;43.882;-0.310;2023-02-22T06:14:43;50.42;;;30.75;;
57565;SDS011;63999;43.882;-0.310;2023-02-22T06:17:11;39.25;;;25.17;;
57565;SDS011;63999;43.882;-0.310;2023-02-22T06:19:40;46.10;;;28.67;;
57565;SDS011;63999;43.882;-0.310;2023-02-22T06:22:13;45.28;;;24.95;;
57565;SDS011;63999;43.882;-0.310;2023-02-22T06:24:43;43.97;;;26.65;;
57565;SDS011;63999;43.882;-0.310;2023-02-22T06:27:09;43.92;;;24.65;;
57565;SDS011;63999;43.882;-0.310;2023-02-22T06:29:35;39.30;;;25.00;;
57565;SDS011;63999;43.882;-0.310;2023-02-22T06:32:00;46.00;;;26.38;;
57565;SDS011;63999;43.882;-0.310;2023-02-22T06:34:26;39.08;;;24.95;;
57565;SDS011;63999;43.882;-0.310;2023-02-22T06:36:52;42.92;;;25.13;;
57565;SDS011;63999;43.882;-0.310;2023-02-22T06:39:18;46.38;;;25.02;;
57565;SDS011;63999;43.882;-0.310;2023-02-22T06:41:44;45.97;;;25.60;;
57565;SDS011;63999;43.882;-0.310;2023-02-22T06:44:11;46.13;;;25.52;;
57565;SDS011;63999;43.882;-0.310;2023-02-22T06:46:38;41.92;;;24.25;;
57565;SDS011;63999;43.882;-0.310;2023-02-22T06:49:04;41.35;;;24.20;;
57565;SDS011;63999;43.882;-0.310;2023-02-22T06:51:30;43.90;;;25.77;;
57565;SDS011;63999;43.882;-0.310;2023-02-22T06:54:00;37.00;;;22.00;;
57565;SDS011;63999;43.882;-0.310;2023-02-22T06:56:26;46.58;;;26.30;;
57565;SDS011;63999;43.882;-0.310;2023-02-22T06:58:52;44.08;;;24.83;;
57565;SDS011;63999;43.882;-0.310;2023-02-22T07:01:18;35.92;;;21.23;;
57565;SDS011;63999;43.882;-0.310;2023-02-22T07:03:44;34.35;;;23.00;;
57565;SDS011;63999;43.882;-0.310;2023-02-22T07:06:10;42.20;;;23.85;;
57565;SDS011;63999;43.882;-0.310;2023-02-22T07:08:36;37.33;;;22.42;;
57565;SDS011;63999;43.882;-0.310;2023-02-22T07:11:02;39.75;;;22.83;;
57565;SDS011;63999;43.882;-0.310;2023-02-22T07:13:27;35.03;;;21.33;;
57565;SDS011;63999;43.882;-0.310;2023-02-22T07:15:53;40.92;;;24.65;;
57565;SDS011;63999;43.882;-0.310;2023-02-22T07:18:19;52.65;;;29.30;;
57565;SDS011;63999;43.882;-0.310;2023-02-22T07:20:45;41.38;;;23.52;;
57565;SDS011;63999;43.882;-0.310;2023-02-22T07:23:14;37.20;;;21.63;;
57565;SDS011;63999;43.882;-0.310;2023-02-22T07:25:41;35.72;;;21.65;;
57565;SDS011;63999;43.882;-0.310;2023-02-22T07:28:07;31.52;;;20.85;;
57565;SDS011;63999;43.882;-0.310;2023-02-22T07:30:35;38.80;;;22.13;;
57565;SDS011;63999;43.882;-0.310;2023-02-22T07:33:03;54.38;;;28.38;;
57565;SDS011;63999;43.882;-0.310;2023-02-22T07:35:31;48.78;;;25.73;;
57565;SDS011;63999;43.882;-0.310;2023-02-22T07:38:01;43.65;;;24.02;;
57565;SDS011;63999;43.882;-0.310;2023-02-22T07:40:27;99.50;;;48.55;;
57565;SDS011;63999;43.882;-0.310;2023-02-22T07:42:54;49.63;;;26.25;;
57565;SDS011;63999;43.882;-0.310;2023-02-22T07:45:24;57.35;;;29.00;;
57565;SDS011;63999;43.882;-0.310;2023-02-22T07:47:52;45.55;;;24.95;;
57565;SDS011;63999;43.882;-0.310;2023-02-22T07:50:19;42.15;;;24.85;;
57565;SDS011;63999;43.882;-0.310;2023-02-22T07:52:47;39.63;;;23.08;;
57565;SDS011;63999;43.882;-0.310;2023-02-22T07:55:15;41.05;;;23.60;;
57565;SDS011;63999;43.882;-0.310;2023-02-22T07:57:45;38.78;;;22.23;;
57565;SDS011;63999;43.882;-0.310;2023-02-22T08:00:13;37.97;;;21.85;;
57565;SDS011;63999;43.882;-0.310;2023-02-22T08:02:41;38.97;;;23.55;;
57565;SDS011;63999;43.882;-0.310;2023-02-22T08:05:08;38.60;;;23.15;;
57565;SDS011;63999;43.882;-0.310;2023-02-22T08:07:37;36.00;;;21.45;;
57565;SDS011;63999;43.882;-0.310;2023-02-22T08:10:04;37.08;;;21.98;;
57565;SDS011;63999;43.882;-0.310;2023-02-22T08:12:32;39.50;;;21.63;;
57565;SDS011;63999;43.882;-0.310;2023-02-22T08:15:00;40.50;;;22.77;;
57565;SDS011;63999;43.882;-0.310;2023-02-22T08:17:26;48.90;;;27.25;;
57565;SDS011;63999;43.882;-0.310;2023-02-22T08:19:52;36.97;;;22.95;;
57565;SDS011;63999;43.882;-0.310;2023-02-22T08:22:18;42.45;;;23.67;;
57565;SDS011;63999;43.882;-0.310;2023-02-22T08:24:44;47.70;;;26.02;;
57565;SDS011;63999;43.882;-0.310;2023-02-22T08:27:10;38.47;;;21.95;;
57565;SDS011;63999;43.882;-0.310;2023-02-22T08:29:35;31.90;;;19.33;;
57565;SDS011;63999;43.882;-0.310;2023-02-22T08:32:01;36.40;;;21.48;;
57565;SDS011;63999;43.882;-0.310;2023-02-22T08:34:27;42.22;;;22.58;;
57565;SDS011;63999;43.882;-0.310;2023-02-22T08:36:53;31.73;;;19.45;;
57565;SDS011;63999;43.882;-0.310;2023-02-22T08:39:20;39.65;;;23.65;;
57565;SDS011;63999;43.882;-0.310;2023-02-22T08:41:46;35.17;;;20.08;;
57565;SDS011;63999;43.882;-0.310;2023-02-22T08:44:12;34.78;;;20.08;;
57565;SDS011;63999;43.882;-0.310;2023-02-22T08:46:38;35.80;;;20.75;;
57565;SDS011;63999;43.882;-0.310;2023-02-22T08:49:04;34.17;;;19.40;;
57565;SDS011;63999;43.882;-0.310;2023-02-22T08:51:34;33.67;;;18.35;;
57565;SDS011;63999;43.882;-0.310;2023-02-22T08:54:02;35.55;;;18.38;;
57565;SDS011;63999;43.882;-0.310;2023-02-22T08:56:28;31.55;;;19.48;;
57565;SDS011;63999;43.882;-0.310;2023-02-22T08:58:54;29.05;;;17.92;;
57565;SDS011;63999;43.882;-0.310;2023-02-22T09:01:21;32.67;;;17.75;;
57565;SDS011;63999;43.882;-0.310;2023-02-22T09:03:52;28.17;;;16.55;;
57565;SDS011;63999;43.882;-0.310;2023-02-22T09:06:18;30.17;;;17.08;;
57565;SDS011;63999;43.882;-0.310;2023-02-22T09:08:43;30.27;;;17.60;;
57565;SDS011;63999;43.882;-0.310;2023-02-22T09:11:09;29.83;;;17.83;;
57565;SDS011;63999;43.882;-0.310;2023-02-22T09:13:35;25.45;;;17.55;;
57565;SDS011;63999;43.882;-0.310;2023-02-22T09:16:01;35.95;;;17.00;;
57565;SDS011;63999;43.882;-0.310;2023-02-22T09:18:27;27.90;;;17.58;;
57565;SDS011;63999;43.882;-0.310;2023-02-22T09:20:53;31.60;;;17.50;;
57565;SDS011;63999;43.882;-0.310;2023-02-22T09:23:19;24.25;;;16.00;;
57565;SDS011;63999;43.882;-0.310;2023-02-22T09:25:48;25.60;;;15.77;;
57565;SDS011;63999;43.882;-0.310;2023-02-22T09:28:14;28.08;;;17.92;;
57565;SDS011;63999;43.882;-0.310;2023-02-22T09:30:40;27.90;;;17.50;;
57565;SDS011;63999;43.882;-0.310;2023-02-22T09:33:08;29.30;;;17.75;;
57565;SDS011;63999;43.882;-0.310;2023-02-22T09:35:37;28.25;;;16.67;;
57565;SDS011;63999;43.882;-0.310;2023-02-22T09:38:06;28.15;;;15.38;;
57565;SDS011;63999;43.882;-0.310;2023-02-22T09:40:34;29.38;;;16.05;;
57565;SDS011;63999;43.882;-0.310;2023-02-22T09:43:43;23.65;;;14.82;;
57565;SDS011;63999;43.882;-0.310;2023-02-22T09:46:37;23.13;;;13.88;;
57565;SDS011;63999;43.882;-0.310;2023-02-22T09:56:49;24.10;;;14.18;;
57565;SDS011;63999;43.882;-0.310;2023-02-22T09:59:21;22.10;;;14.30;;
57565;SDS011;63999;43.882;-0.310;2023-02-22T10:02:28;20.63;;;12.85;;
57565;SDS011;63999;43.882;-0.310;2023-02-22T10:04:59;22.88;;;13.40;;
57565;SDS011;63999;43.882;-0.310;2023-02-22T10:07:39;23.40;;;12.95;;
57565;SDS011;63999;43.882;-0.310;2023-02-22T10:10:15;21.35;;;11.90;;
57565;SDS011;63999;43.882;-0.310;2023-02-22T10:15:44;27.23;;;11.70;;
57565;SDS011;63999;43.882;-0.310;2023-02-22T10:18:29;21.55;;;11.95;;
57565;SDS011;63999;43.882;-0.310;2023-02-22T10:21:32;16.73;;;11.60;;
57565;SDS011;63999;43.882;-0.310;2023-02-22T10:24:56;21.90;;;11.27;;
57565;SDS011;63999;43.882;-0.310;2023-02-22T10:27:20;21.73;;;11.23;;
57565;SDS011;63999;43.882;-0.310;2023-02-22T10:32:42;18.67;;;10.53;;
57565;SDS011;63999;43.882;-0.310;2023-02-22T10:35:20;22.27;;;11.85;;
57565;SDS011;63999;43.882;-0.310;2023-02-22T10:37:49;18.48;;;10.38;;
57565;SDS011;63999;43.882;-0.310;2023-02-22T10:40:21;19.33;;;9.75;;
57565;SDS011;63999;43.882;-0.310;2023-02-22T10:43:05;18.98;;;9.95;;
57565;SDS011;63999;43.882;-0.310;2023-02-22T10:45:35;20.40;;;10.77;;
57565;SDS011;63999;43.882;-0.310;2023-02-22T10:48:05;20.55;;;10.43;;
57565;SDS011;63999;43.882;-0.310;2023-02-22T10:50:36;18.10;;;10.35;;
57565;SDS011;63999;43.882;-0.310;2023-02-22T10:53:05;20.00;;;10.75;;
57565;SDS011;63999;43.882;-0.310;2023-02-22T10:55:34;20.73;;;10.95;;
57565;SDS011;63999;43.882;-0.310;2023-02-22T10:58:21;20.92;;;10.77;;
57565;SDS011;63999;43.882;-0.310;2023-02-22T11:00:48;17.58;;;9.95;;
57565;SDS011;63999;43.882;-0.310;2023-02-22T11:03:16;16.45;;;9.98;;
57565;SDS011;63999;43.882;-0.310;2023-02-22T11:05:44;15.32;;;9.65;;
57565;SDS011;63999;43.882;-0.310;2023-02-22T11:10:45;18.85;;;9.75;;
57565;SDS011;63999;43.882;-0.310;2023-02-22T11:13:32;15.57;;;9.55;;
57565;SDS011;63999;43.882;-0.310;2023-02-22T11:16:18;16.60;;;9.45;;
57565;SDS011;63999;43.882;-0.310;2023-02-22T11:21:44;17.13;;;9.77;;
57565;SDS011;63999;43.882;-0.310;2023-02-22T11:24:13;15.23;;;8.43;;
57565;SDS011;63999;43.882;-0.310;2023-02-22T11:26:45;16.15;;;9.18;;
57565;SDS011;63999;43.882;-0.310;2023-02-22T11:29:17;16.40;;;9.07;;
57565;SDS011;63999;43.882;-0.310;2023-02-22T11:32:14;11.77;;;6.75;;
57565;SDS011;63999;43.882;-0.310;2023-02-22T11:34:46;13.60;;;8.20;;
57565;SDS011;63999;43.882;-0.310;2023-02-22T11:42:44;12.80;;;7.68;;
57565;SDS011;63999;43.882;-0.310;2023-02-22T11:45:20;13.55;;;7.82;;
57565;SDS011;63999;43.882;-0.310;2023-02-22T11:47:53;13.68;;;8.30;;
57565;SDS011;63999;43.882;-0.310;2023-02-22T11:50:32;15.25;;;7.07;;
57565;SDS011;63999;43.882;-0.310;2023-02-22T11:58:47;10.82;;;6.15;;
57565;SDS011;63999;43.882;-0.310;2023-02-22T12:01:32;12.13;;;5.93;;
57565;SDS011;63999;43.882;-0.310;2023-02-22T12:04:21;9.88;;;6.28;;
57565;SDS011;63999;43.882;-0.310;2023-02-22T12:07:34;13.00;;;5.90;;
57565;SDS011;63999;43.882;-0.310;2023-02-22T12:10:19;11.30;;;7.22;;
57565;SDS011;63999;43.882;-0.310;2023-02-22T12:15:33;11.73;;;6.07;;
57565;SDS011;63999;43.882;-0.310;2023-02-22T12:18:19;12.05;;;7.07;;
57565;SDS011;63999;43.882;-0.310;2023-02-22T12:20:51;11.35;;;6.75;;
57565;SDS011;63999;43.882;-0.310;2023-02-22T12:23:34;11.38;;;6.90;;
57565;SDS011;63999;43.882;-0.310;2023-02-22T12:26:29;23.20;;;12.88;;
57565;SDS011;63999;43.882;-0.310;2023-02-22T12:29:10;45.30;;;14.82;;
57565;SDS011;63999;43.882;-0.310;2023-02-22T12:31:44;23.20;;;10.88;;
57565;SDS011;63999;43.882;-0.310;2023-02-22T12:34:12;16.77;;;9.48;;
57565;SDS011;63999;43.882;-0.310;2023-02-22T12:36:46;22.73;;;10.10;;
57565;SDS011;63999;43.882;-0.310;2023-02-22T12:42:00;17.25;;;7.93;;
57565;SDS011;63999;43.882;-0.310;2023-02-22T12:44:34;15.77;;;7.72;;
57565;SDS011;63999;43.882;-0.310;2023-02-22T12:47:03;11.73;;;7.05;;
57565;SDS011;63999;43.882;-0.310;2023-02-22T12:52:56;14.65;;;7.88;;
57565;SDS011;63999;43.882;-0.310;2023-02-22T12:55:32;12.55;;;6.95;;
57565;SDS011;63999;43.882;-0.310;2023-02-22T13:00:40;15.63;;;7.32;;
57565;SDS011;63999;43.882;-0.310;2023-02-22T13:05:39;12.90;;;7.30;;
57565;SDS011;63999;43.882;-0.310;2023-02-22T13:10:55;19.60;;;9.15;;
57565;SDS011;63999;43.882;-0.310;2023-02-22T13:27:58;12.02;;;6.65;;
57565;SDS011;63999;43.882;-0.310;2023-02-22T13:30:40;13.18;;;7.80;;
57565;SDS011;63999;43.882;-0.310;2023-02-22T13:36:34;13.57;;;7.20;;
57565;SDS011;63999;43.882;-0.310;2023-02-22T13:53:46;14.60;;;7.88;;
57565;SDS011;63999;43.882;-0.310;2023-02-22T13:56:19;15.18;;;8.30;;
57565;SDS011;63999;43.882;-0.310;2023-02-22T13:58:56;18.42;;;7.25;;
57565;SDS011;63999;43.882;-0.310;2023-02-22T14:01:41;13.95;;;8.02;;
57565;SDS011;63999;43.882;-0.310;2023-02-22T14:06:52;14.82;;;8.48;;
57565;SDS011;63999;43.882;-0.310;2023-02-22T14:15:16;14.82;;;8.10;;
57565;SDS011;63999;43.882;-0.310;2023-02-22T14:17:45;14.88;;;7.75;;
57565;SDS011;63999;43.882;-0.310;2023-02-22T14:22:45;15.85;;;7.93;;
57565;SDS011;63999;43.882;-0.310;2023-02-22T14:27:54;15.68;;;7.95;;
57565;SDS011;63999;43.882;-0.310;2023-02-22T14:30:24;11.50;;;7.05;;
57565;SDS011;63999;43.882;-0.310;2023-02-22T14:32:56;14.48;;;7.85;;
57565;SDS011;63999;43.882;-0.310;2023-02-22T14:35:21;14.75;;;8.07;;
57565;SDS011;63999;43.882;-0.310;2023-02-22T14:37:52;13.93;;;8.02;;
57565;SDS011;63999;43.882;-0.310;2023-02-22T14:45:47;19.05;;;7.40;;
57565;SDS011;63999;43.882;-0.310;2023-02-22T14:51:04;14.60;;;7.05;;
57565;SDS011;63999;43.882;-0.310;2023-02-22T14:53:43;16.13;;;8.00;;
57565;SDS011;63999;43.882;-0.310;2023-02-22T15:01:46;14.85;;;7.60;;
57565;SDS011;63999;43.882;-0.310;2023-02-22T15:06:49;15.77;;;6.88;;
57565;SDS011;63999;43.882;-0.310;2023-02-22T15:09:27;13.30;;;6.75;;
57565;SDS011;63999;43.882;-0.310;2023-02-22T15:14:27;18.33;;;8.20;;
57565;SDS011;63999;43.882;-0.310;2023-02-22T15:16:55;14.13;;;7.75;;
57565;SDS011;63999;43.882;-0.310;2023-02-22T15:19:28;19.25;;;7.90;;
57565;SDS011;63999;43.882;-0.310;2023-02-22T15:21:56;28.58;;;8.57;;
57565;SDS011;63999;43.882;-0.310;2023-02-22T15:24:35;21.30;;;8.90;;
57565;SDS011;63999;43.882;-0.310;2023-02-22T15:27:20;25.55;;;8.57;;
57565;SDS011;63999;43.882;-0.310;2023-02-22T15:29:46;30.27;;;9.40;;
57565;SDS011;63999;43.882;-0.310;2023-02-22T15:32:19;24.30;;;8.57;;
57565;SDS011;63999;43.882;-0.310;2023-02-22T15:35:04;27.58;;;8.93;;
57565;SDS011;63999;43.882;-0.310;2023-02-22T15:37:36;21.77;;;7.73;;
57565;SDS011;63999;43.882;-0.310;2023-02-22T15:40:11;19.60;;;8.23;;
57565;SDS011;63999;43.882;-0.310;2023-02-22T15:42:49;24.52;;;9.18;;
57565;SDS011;63999;43.882;-0.310;2023-02-22T15:45:22;27.38;;;9.02;;
57565;SDS011;63999;43.882;-0.310;2023-02-22T15:47:50;23.25;;;8.32;;
57565;SDS011;63999;43.882;-0.310;2023-02-22T15:52:57;19.98;;;7.65;;
57565;SDS011;63999;43.882;-0.310;2023-02-22T15:55:45;21.88;;;8.60;;
57565;SDS011;63999;43.882;-0.310;2023-02-22T16:00:43;22.83;;;8.23;;
57565;SDS011;63999;43.882;-0.310;2023-02-22T16:03:16;22.13;;;8.98;;
57565;SDS011;63999;43.882;-0.310;2023-02-22T16:05:51;20.13;;;8.57;;
57565;SDS011;63999;43.882;-0.310;2023-02-22T16:08:26;17.02;;;8.57;;
57565;SDS011;63999;43.882;-0.310;2023-02-22T16:11:04;22.95;;;8.20;;
57565;SDS011;63999;43.882;-0.310;2023-02-22T16:13:37;23.23;;;9.27;;
57565;SDS011;63999;43.882;-0.310;2023-02-22T16:16:19;17.42;;;7.72;;
57565;SDS011;63999;43.882;-0.310;2023-02-22T16:18:48;20.17;;;8.05;;
57565;SDS011;63999;43.882;-0.310;2023-02-22T16:21:16;20.00;;;8.32;;
57565;SDS011;63999;43.882;-0.310;2023-02-22T16:23:52;18.40;;;7.75;;
57565;SDS011;63999;43.882;-0.310;2023-02-22T16:26:30;24.10;;;9.35;;
57565;SDS011;63999;43.882;-0.310;2023-02-22T16:29:00;15.90;;;8.00;;
57565;SDS011;63999;43.882;-0.310;2023-02-22T16:31:32;17.40;;;7.90;;
57565;SDS011;63999;43.882;-0.310;2023-02-22T16:34:01;20.73;;;8.73;;
57565;SDS011;63999;43.882;-0.310;2023-02-22T16:39:06;22.27;;;9.32;;
57565;SDS011;63999;43.882;-0.310;2023-02-22T16:41:43;21.85;;;8.82;;
57565;SDS011;63999;43.882;-0.310;2023-02-22T16:44:09;22.80;;;8.95;;
57565;SDS011;63999;43.882;-0.310;2023-02-22T16:46:39;22.15;;;9.65;;
57565;SDS011;63999;43.882;-0.310;2023-02-22T16:49:06;27.92;;;9.45;;
57565;SDS011;63999;43.882;-0.310;2023-02-22T16:51:39;19.88;;;9.25;;
57565;SDS011;63999;43.882;-0.310;2023-02-22T16:54:12;19.15;;;8.43;;
57565;SDS011;63999;43.882;-0.310;2023-02-22T16:56:43;26.30;;;10.23;;
57565;SDS011;63999;43.882;-0.310;2023-02-22T16:59:10;30.42;;;10.77;;
57565;SDS011;63999;43.882;-0.310;2023-02-22T17:01:38;21.23;;;8.57;;
57565;SDS011;63999;43.882;-0.310;2023-02-22T17:04:09;21.25;;;9.13;;
57565;SDS011;63999;43.882;-0.310;2023-02-22T17:06:39;22.00;;;9.55;;
57565;SDS011;63999;43.882;-0.310;2023-02-22T17:09:05;23.88;;;10.05;;